Time;durP1;ratioP1;P1;durP2;ratioP2;P2;SDS_P1;SDS_P2;PMS_P1;PMS_P2;Temp;Humidity;BMP_temperature;BMP_pressure;BME280_temperature;BME280_humidity;BME280_pressure;Samples;Min_cycle;Max_cycle;Signal;HPM_P1;HPM_P2
2023/11/08 00:01:13;;;;;;;4.35;0.95;;;8.20;99.90;;;;;;5005372;28;20034;-66
2023/11/08 00:03:39;;;;;;;3.97;1.23;;;8.20;99.90;;;;;;5040536;28;20054;-65
2023/11/08 00:06:04;;;;;;;1.20;0.85;;;8.20;99.90;;;;;;5000190;28;20501;-65
2023/11/08 00:08:30;;;;;;;1.23;0.93;;;8.20;99.90;;;;;;5040844;28;20121;-65
2023/11/08 00:10:56;;;;;;;1.58;1.00;;;8.20;99.90;;;;;;5004185;28;20121;-66
2023/11/08 00:13:22;;;;;;;1.30;0.77;;;8.20;99.90;;;;;;5004642;28;20149;-65
2023/11/08 00:15:48;;;;;;;1.25;0.85;;;8.20;99.90;;;;;;5002033;28;20077;-65
2023/11/08 00:18:14;;;;;;;1.65;1.20;;;8.20;99.90;;;;;;5006310;28;20103;-65
2023/11/08 00:20:40;;;;;;;1.75;1.50;;;8.20;99.90;;;;;;5008427;28;20073;-65
2023/11/08 00:23:06;;;;;;;1.90;0.90;;;8.20;99.90;;;;;;5006709;28;20112;-65
2023/11/08 00:25:31;;;;;;;0.80;0.70;;;8.20;99.90;;;;;;4999759;28;20126;-66
2023/11/08 00:27:58;;;;;;;2.10;1.25;;;8.20;99.90;;;;;;5009845;28;20464;-66
2023/11/08 00:30:24;;;;;;;1.88;1.02;;;8.20;99.90;;;;;;5005605;28;20037;-65
2023/11/08 00:32:49;;;;;;;2.25;1.30;;;8.20;99.90;;;;;;5005913;28;20060;-65
2023/11/08 00:35:15;;;;;;;2.95;1.00;;;8.20;99.90;;;;;;5004122;28;20062;-65
2023/11/08 00:37:41;;;;;;;2.58;1.52;;;8.30;99.90;;;;;;5033250;28;20108;-65
2023/11/08 00:40:08;;;;;;;3.35;1.45;;;8.30;99.90;;;;;;5006559;28;20552;-65
2023/11/08 00:42:34;;;;;;;1.67;1.02;;;8.30;99.90;;;;;;5000363;28;20112;-66
2023/11/08 00:52:11;;;;;;;3.17;1.35;;;8.30;99.90;;;;;;5007724;28;20046;-66
2023/11/08 00:54:37;;;;;;;2.05;1.00;;;8.30;99.90;;;;;;5032431;28;20050;-65
2023/11/08 00:57:03;;;;;;;3.88;1.45;;;8.30;99.90;;;;;;5008729;28;20048;-65
2023/11/08 00:59:29;;;;;;;1.85;1.02;;;8.30;99.90;;;;;;5038114;28;20113;-65
2023/11/08 01:01:55;;;;;;;1.63;1.27;;;8.30;99.90;;;;;;5003610;28;20053;-65
2023/11/08 01:04:21;;;;;;;3.45;1.42;;;8.30;99.90;;;;;;5004134;28;20365;-65
2023/11/08 01:06:47;;;;;;;1.88;1.35;;;8.30;99.90;;;;;;5004115;28;20039;-65
2023/11/08 01:09:13;;;;;;;4.75;1.30;;;8.20;99.90;;;;;;5003472;28;20126;-65
2023/11/08 01:11:41;;;;;;;2.25;1.40;;;8.20;99.90;;;;;;5002236;28;20394;-65
2023/11/08 01:14:07;;;;;;;2.05;1.58;;;8.30;99.90;;;;;;5016761;28;20059;-65
2023/11/08 01:16:32;;;;;;;2.55;1.40;;;8.30;99.90;;;;;;5006994;28;20124;-64
2023/11/08 01:18:58;;;;;;;2.22;1.38;;;8.30;99.90;;;;;;5007888;28;20513;-64
2023/11/08 01:21:25;;;;;;;1.88;1.20;;;8.20;99.90;;;;;;5007673;28;20038;-64
2023/11/08 01:23:51;;;;;;;2.22;1.55;;;8.30;99.90;;;;;;5003685;28;20072;-65
2023/11/08 01:26:17;;;;;;;2.15;1.35;;;8.30;99.90;;;;;;5006403;28;20046;-65
2023/11/08 01:28:45;;;;;;;2.38;1.45;;;8.30;99.90;;;;;;5037433;28;20414;-65
2023/11/08 01:31:10;;;;;;;1.75;1.50;;;8.20;99.90;;;;;;5007945;28;20042;-65
2023/11/08 01:33:36;;;;;;;2.25;1.20;;;8.20;99.90;;;;;;5007842;28;20361;-65
2023/11/08 01:36:03;;;;;;;2.35;1.40;;;8.20;99.90;;;;;;5003023;28;20055;-65
2023/11/08 01:38:28;;;;;;;2.92;1.25;;;8.10;99.90;;;;;;5004541;28;20046;-66
2023/11/08 01:40:54;;;;;;;0.98;0.70;;;8.10;99.90;;;;;;5035494;28;20042;-65
2023/11/08 01:43:33;;;;;;;1.13;0.70;;;8.10;99.90;;;;;;4997793;28;20038;-63
2023/11/08 01:46:11;;;;;;;2.28;1.15;;;8.10;99.90;;;;;;5004290;28;20089;-65
2023/11/08 01:48:40;;;;;;;1.60;0.85;;;8.00;99.90;;;;;;5002311;28;20045;-65
2023/11/08 01:51:06;;;;;;;1.20;0.88;;;8.00;99.90;;;;;;4996854;28;20386;-65
2023/11/08 01:53:42;;;;;;;2.90;1.20;;;8.00;99.90;;;;;;5000688;28;20038;-63
2023/11/08 01:56:08;;;;;;;1.48;0.70;;;8.00;99.90;;;;;;5006750;28;20042;-63
2023/11/08 01:58:38;;;;;;;1.30;1.00;;;7.90;99.90;;;;;;5005767;28;20393;-64
2023/11/08 02:01:08;;;;;;;2.05;1.60;;;8.00;99.90;;;;;;5001309;28;20061;-64
2023/11/08 02:03:39;;;;;;;1.58;1.05;;;7.90;99.90;;;;;;5003249;28;20046;-64
2023/11/08 02:06:10;;;;;;;1.25;1.02;;;7.90;99.90;;;;;;5004681;28;20498;-64
2023/11/08 02:08:38;;;;;;;0.85;0.65;;;7.90;99.90;;;;;;5004727;28;20034;-63
2023/11/08 02:11:05;;;;;;;1.60;0.85;;;7.80;99.90;;;;;;4998530;28;20077;-64
2023/11/08 02:13:33;;;;;;;2.55;1.30;;;7.80;99.90;;;;;;5001789;28;20127;-64
2023/11/08 02:15:59;;;;;;;2.20;0.98;;;7.80;99.90;;;;;;5034975;28;20048;-65
2023/11/08 02:18:26;;;;;;;1.40;1.23;;;7.80;99.90;;;;;;4998081;28;20042;-64
2023/11/08 02:20:52;;;;;;;1.48;1.08;;;7.80;99.90;;;;;;4996913;28;20437;-64
2023/11/08 02:23:18;;;;;;;2.05;0.88;;;7.80;99.90;;;;;;5006096;28;20145;-64
2023/11/08 02:25:45;;;;;;;3.95;1.13;;;7.80;99.90;;;;;;5000772;28;20038;-64
2023/11/08 02:28:11;;;;;;;1.02;0.90;;;7.90;99.90;;;;;;4998363;28;20067;-64
2023/11/08 02:30:36;;;;;;;1.17;1.00;;;7.90;99.90;;;;;;5001653;28;20049;-64
2023/11/08 02:33:02;;;;;;;0.85;0.70;;;7.90;99.90;;;;;;5006160;28;20048;-64
2023/11/08 02:35:28;;;;;;;3.25;1.35;;;7.90;99.90;;;;;;5003907;28;20442;-64
2023/11/08 02:37:54;;;;;;;1.80;1.08;;;7.90;99.90;;;;;;5030081;28;20046;-64
2023/11/08 02:40:20;;;;;;;1.35;0.90;;;7.90;99.90;;;;;;5001352;28;20041;-64
2023/11/08 02:42:46;;;;;;;1.05;0.73;;;7.90;99.90;;;;;;5033462;28;20119;-64
2023/11/08 02:45:12;;;;;;;0.55;0.55;;;7.90;99.90;;;;;;5001770;28;20079;-65
2023/11/08 02:47:38;;;;;;;1.77;0.88;;;7.90;99.90;;;;;;5002470;28;20100;-65
2023/11/08 02:50:05;;;;;;;0.82;0.77;;;7.90;99.90;;;;;;5002041;28;20565;-64
2023/11/08 02:52:32;;;;;;;1.73;1.00;;;7.90;99.90;;;;;;5001448;28;20050;-65
2023/11/08 02:54:58;;;;;;;1.02;0.73;;;7.80;99.90;;;;;;5001091;28;20034;-65
2023/11/08 02:57:26;;;;;;;1.33;0.57;;;7.80;99.90;;;;;;4997573;28;20418;-65
2023/11/08 02:59:52;;;;;;;0.75;0.50;;;7.80;99.90;;;;;;5003177;28;20072;-65
2023/11/08 03:02:20;;;;;;;1.60;1.05;;;7.70;99.90;;;;;;5008743;28;20394;-65
2023/11/08 03:04:46;;;;;;;0.73;0.60;;;7.70;99.90;;;;;;5005379;28;20095;-65
2023/11/08 03:07:12;;;;;;;3.28;0.98;;;7.70;99.90;;;;;;5000383;28;20045;-64
2023/11/08 03:09:39;;;;;;;1.50;0.50;;;7.80;99.90;;;;;;4999735;28;20100;-65
2023/11/08 03:12:05;;;;;;;0.82;0.47;;;7.70;99.90;;;;;;5005798;28;20283;-65
2023/11/08 03:14:30;;;;;;;1.15;0.88;;;7.70;99.90;;;;;;5038371;28;20617;-65
2023/11/08 03:16:58;;;;;;;0.82;0.65;;;7.70;99.90;;;;;;4998098;28;20431;-65
2023/11/08 03:19:23;;;;;;;2.45;0.70;;;7.70;99.90;;;;;;5002512;28;20049;-64
2023/11/08 03:21:50;;;;;;;1.42;0.90;;;7.70;99.90;;;;;;5002555;28;20072;-64
2023/11/08 03:24:18;;;;;;;1.10;0.65;;;7.80;99.90;;;;;;5000442;28;20038;-63
2023/11/08 03:26:46;;;;;;;2.72;0.70;;;7.80;99.90;;;;;;5000871;28;20069;-64
2023/11/08 03:29:12;;;;;;;1.30;0.80;;;7.70;99.90;;;;;;4999893;28;20360;-65
2023/11/08 03:31:38;;;;;;;1.63;0.80;;;7.70;99.90;;;;;;5004357;28;20042;-64
2023/11/08 03:34:04;;;;;;;1.20;0.95;;;7.70;99.90;;;;;;5002909;28;20450;-64
2023/11/08 03:36:30;;;;;;;1.05;0.63;;;7.70;99.90;;;;;;5002445;28;20038;-64
2023/11/08 03:38:59;;;;;;;1.85;0.75;;;7.70;99.90;;;;;;5002492;28;20100;-64
2023/11/08 03:41:26;;;;;;;2.15;0.90;;;7.70;99.90;;;;;;5000783;28;20049;-64
2023/11/08 03:43:55;;;;;;;0.75;0.55;;;7.70;99.90;;;;;;4999376;28;20093;-65
2023/11/08 03:46:21;;;;;;;1.23;0.75;;;7.70;99.90;;;;;;4996357;28;20042;-64
2023/11/08 03:48:54;;;;;;;1.38;0.80;;;7.60;99.90;;;;;;5032984;28;20034;-64
2023/11/08 03:51:20;;;;;;;1.90;1.30;;;7.60;99.90;;;;;;5001480;28;20136;-64
2023/11/08 03:53:46;;;;;;;1.63;0.85;;;7.60;99.90;;;;;;5003240;28;20482;-64
2023/11/08 03:56:12;;;;;;;1.40;0.75;;;7.60;99.90;;;;;;4998767;28;20269;-65
2023/11/08 03:58:38;;;;;;;1.98;1.25;;;7.60;99.90;;;;;;5039103;28;20672;-65
2023/11/08 04:01:04;;;;;;;1.80;0.88;;;7.60;99.90;;;;;;5000540;28;20081;-64
2023/11/08 04:03:32;;;;;;;2.90;0.95;;;7.50;99.90;;;;;;4997997;28;20034;-64
2023/11/08 04:05:58;;;;;;;1.10;0.75;;;7.50;99.90;;;;;;4999280;28;20401;-65
2023/11/08 04:08:24;;;;;;;1.45;1.05;;;7.50;99.90;;;;;;5031554;28;20046;-65
2023/11/08 04:10:50;;;;;;;1.33;0.80;;;7.50;99.90;;;;;;4997657;28;20042;-65
2023/11/08 04:13:16;;;;;;;1.13;0.82;;;7.50;99.90;;;;;;5000577;28;20121;-64
2023/11/08 04:15:41;;;;;;;1.08;0.70;;;7.50;99.90;;;;;;5029405;28;20113;-64
2023/11/08 04:18:07;;;;;;;1.77;1.60;;;7.50;99.90;;;;;;5034837;28;20193;-64
2023/11/08 04:20:33;;;;;;;2.05;0.85;;;7.50;99.90;;;;;;5000400;28;20038;-64
2023/11/08 04:22:59;;;;;;;1.50;0.90;;;7.50;99.90;;;;;;5033153;28;20113;-65
2023/11/08 04:25:25;;;;;;;1.88;0.90;;;7.50;99.90;;;;;;4996716;28;20193;-64
2023/11/08 04:27:51;;;;;;;0.90;0.73;;;7.50;99.90;;;;;;5002948;28;20038;-64
2023/11/08 04:30:17;;;;;;;2.03;1.00;;;7.50;99.90;;;;;;5003613;28;20375;-64
2023/11/08 04:32:43;;;;;;;1.00;0.80;;;7.50;99.90;;;;;;5004350;28;20462;-63
2023/11/08 04:35:10;;;;;;;1.42;1.05;;;7.50;99.90;;;;;;5006112;28;20539;-64
2023/11/08 04:37:40;;;;;;;5.78;1.25;;;7.50;99.90;;;;;;5005892;28;20176;-63
2023/11/08 04:40:07;;;;;;;0.85;0.63;;;7.40;99.90;;;;;;5002340;28;20049;-63
2023/11/08 04:42:33;;;;;;;5.40;0.88;;;7.40;99.90;;;;;;5003782;28;20045;-63
2023/11/08 04:44:59;;;;;;;0.82;0.68;;;7.40;99.90;;;;;;5005973;28;20042;-64
2023/11/08 04:47:25;;;;;;;1.13;0.65;;;7.30;99.90;;;;;;5037967;28;20517;-64
2023/11/08 04:49:53;;;;;;;3.80;1.27;;;7.30;99.90;;;;;;5005100;28;20075;-64
2023/11/08 04:52:19;;;;;;;2.88;0.98;;;7.30;99.90;;;;;;4995648;28;20108;-65
2023/11/08 04:54:47;;;;;;;1.30;0.70;;;7.30;99.90;;;;;;5010515;28;20144;-65
2023/11/08 04:57:17;;;;;;;2.83;1.15;;;7.30;99.90;;;;;;5005516;28;20557;-64
2023/11/08 04:59:46;;;;;;;3.00;1.48;;;7.30;99.90;;;;;;5009777;28;20514;-64
2023/11/08 05:02:12;;;;;;;2.03;1.30;;;7.30;99.90;;;;;;5009692;28;20048;-64
2023/11/08 05:04:42;;;;;;;1.65;1.38;;;7.40;99.90;;;;;;5010935;28;20129;-64
2023/11/08 05:07:08;;;;;;;1.08;0.93;;;7.30;99.90;;;;;;5008108;28;20147;-64
2023/11/08 05:09:41;;;;;;;2.97;1.55;;;7.40;99.90;;;;;;5005387;28;20049;-64
2023/11/08 05:12:07;;;;;;;2.55;1.50;;;7.40;99.90;;;;;;5007889;28;20042;-64
2023/11/08 05:14:33;;;;;;;2.90;1.33;;;7.40;99.90;;;;;;5009424;28;20581;-65
2023/11/08 05:17:03;;;;;;;2.35;1.52;;;7.60;99.90;;;;;;5007502;28;20081;-65
2023/11/08 05:19:29;;;;;;;2.05;1.55;;;7.60;99.90;;;;;;5024563;28;20054;-65
2023/11/08 05:21:55;;;;;;;2.75;2.10;;;7.70;99.90;;;;;;5003453;28;20045;-65
2023/11/08 05:24:22;;;;;;;2.47;1.77;;;7.80;99.90;;;;;;5006466;28;20065;-65
2023/11/08 05:26:48;;;;;;;7.13;2.33;;;7.80;99.90;;;;;;5006952;28;20239;-65
2023/11/08 05:29:14;;;;;;;6.05;2.00;;;7.80;99.90;;;;;;5004955;28;20480;-64
2023/11/08 05:31:40;;;;;;;4.18;2.17;;;7.90;99.90;;;;;;5005074;28;20160;-65
2023/11/08 05:34:07;;;;;;;4.45;2.55;;;7.90;99.90;;;;;;5011055;28;20038;-65
2023/11/08 05:36:34;;;;;;;3.30;2.30;;;7.90;99.90;;;;;;5005685;28;20053;-65
2023/11/08 05:39:00;;;;;;;3.47;1.98;;;8.00;99.90;;;;;;5006750;28;20481;-65
2023/11/08 05:41:26;;;;;;;3.13;2.15;;;8.00;99.90;;;;;;5001019;28;20057;-66
2023/11/08 05:43:58;;;;;;;4.57;2.22;;;8.00;99.90;;;;;;5005056;28;20501;-65
2023/11/08 05:46:28;;;;;;;3.80;1.98;;;8.00;99.90;;;;;;5005459;28;20046;-65
2023/11/08 05:48:55;;;;;;;4.53;2.80;;;8.10;99.90;;;;;;5002813;28;20049;-65
2023/11/08 05:51:22;;;;;;;3.72;3.00;;;8.10;99.90;;;;;;5007294;28;20490;-65
2023/11/08 05:53:48;;;;;;;6.20;2.70;;;8.20;99.90;;;;;;5008756;28;20568;-65
2023/11/08 05:56:13;;;;;;;3.70;3.05;;;8.20;99.90;;;;;;5008858;28;20100;-65
2023/11/08 05:58:39;;;;;;;5.13;3.08;;;8.20;99.90;;;;;;5001301;28;20034;-66
2023/11/08 06:01:06;;;;;;;4.80;2.80;;;8.20;99.90;;;;;;5006033;28;20038;-65
2023/11/08 06:03:32;;;;;;;4.43;2.47;;;8.20;99.90;;;;;;5037369;28;20121;-65
2023/11/08 06:05:58;;;;;;;4.07;2.65;;;8.30;99.90;;;;;;5036860;28;20034;-66
2023/11/08 06:08:24;;;;;;;2.80;1.75;;;8.30;99.90;;;;;;5005052;28;20096;-65
2023/11/08 06:10:50;;;;;;;3.50;2.70;;;8.30;99.90;;;;;;5003642;28;20462;-65
2023/11/08 06:13:16;;;;;;;6.00;3.38;;;8.30;99.90;;;;;;5003420;28;20502;-65
2023/11/08 06:15:42;;;;;;;6.30;3.13;;;8.40;99.90;;;;;;5002314;28;20049;-65
2023/11/08 06:18:09;;;;;;;5.35;2.92;;;8.40;99.90;;;;;;4997921;28;20049;-66
2023/11/08 06:20:35;;;;;;;3.38;2.38;;;8.40;99.90;;;;;;5039127;28;20053;-65
2023/11/08 06:23:04;;;;;;;3.10;2.25;;;8.40;99.90;;;;;;5002959;28;20049;-66
2023/11/08 06:25:31;;;;;;;6.35;2.85;;;8.40;99.90;;;;;;5005286;28;20049;-66
2023/11/08 06:27:58;;;;;;;5.97;3.00;;;8.40;99.90;;;;;;5003163;28;20050;-65
2023/11/08 06:30:24;;;;;;;3.33;2.05;;;8.50;99.90;;;;;;5003965;28;20442;-65
2023/11/08 06:32:49;;;;;;;5.05;3.25;;;8.40;99.90;;;;;;5007400;28;20033;-66
2023/11/08 06:35:15;;;;;;;5.68;2.55;;;8.50;99.90;;;;;;4998243;28;20125;-66
2023/11/08 06:37:41;;;;;;;4.28;2.72;;;8.50;99.90;;;;;;5008845;28;20059;-65
2023/11/08 06:40:09;;;;;;;3.65;2.50;;;8.50;99.90;;;;;;5003584;28;20046;-63
2023/11/08 06:42:35;;;;;;;4.93;2.45;;;8.40;99.90;;;;;;5003929;28;20092;-64
2023/11/08 06:45:04;;;;;;;5.80;3.35;;;8.50;99.90;;;;;;5005937;28;20111;-64
2023/11/08 06:47:30;;;;;;;4.88;2.97;;;8.50;99.90;;;;;;5007546;28;20143;-65
2023/11/08 06:49:56;;;;;;;2.47;2.10;;;8.40;99.90;;;;;;5007283;28;20112;-65
2023/11/08 06:52:25;;;;;;;6.53;3.42;;;8.50;99.90;;;;;;5001608;28;20057;-65
2023/11/08 06:54:51;;;;;;;4.55;2.47;;;8.50;99.90;;;;;;5037353;28;20097;-65
2023/11/08 06:57:17;;;;;;;3.97;2.58;;;8.50;99.90;;;;;;5031030;28;20431;-65
2023/11/08 06:59:43;;;;;;;5.18;2.67;;;8.50;99.90;;;;;;5009490;28;20561;-65
2023/11/08 07:02:09;;;;;;;3.53;2.55;;;8.50;99.90;;;;;;5004791;28;20034;-65
2023/11/08 07:04:35;;;;;;;4.40;2.47;;;8.50;99.90;;;;;;5009262;28;20194;-65
2023/11/08 07:07:04;;;;;;;7.28;3.22;;;8.50;99.90;;;;;;5000571;28;20442;-65
2023/11/08 07:09:30;;;;;;;4.57;2.65;;;8.50;99.90;;;;;;5003864;28;20046;-65
2023/11/08 07:11:57;;;;;;;4.65;2.85;;;8.50;99.90;;;;;;5003960;28;20056;-65
2023/11/08 07:14:23;;;;;;;14.05;2.95;;;8.60;99.90;;;;;;5004916;28;20042;-65
2023/11/08 07:16:49;;;;;;;3.42;2.53;;;8.50;99.90;;;;;;4998412;28;20053;-65
2023/11/08 07:19:15;;;;;;;4.68;2.90;;;8.50;99.90;;;;;;5037020;28;20630;-65
2023/11/08 07:21:41;;;;;;;4.00;2.85;;;8.60;99.90;;;;;;5004224;28;20125;-65
2023/11/08 07:24:10;;;;;;;3.45;2.08;;;8.60;99.90;;;;;;5039717;28;20784;-65
2023/11/08 07:26:36;;;;;;;4.70;2.08;;;8.60;99.90;;;;;;5003507;28;20098;-65
2023/11/08 07:29:05;;;;;;;7.05;2.55;;;8.60;99.90;;;;;;5004524;28;20486;-65
2023/11/08 07:31:31;;;;;;;9.93;3.25;;;8.60;99.90;;;;;;5005657;28;20121;-65
2023/11/08 07:33:57;;;;;;;6.47;2.53;;;8.60;99.90;;;;;;5000897;28;20498;-65
2023/11/08 07:36:24;;;;;;;4.43;2.65;;;8.70;99.90;;;;;;5010692;28;20081;-64
2023/11/08 07:38:50;;;;;;;7.82;3.17;;;8.60;99.90;;;;;;5003875;28;20100;-65
2023/11/08 07:41:16;;;;;;;3.28;2.55;;;8.70;99.90;;;;;;5002777;28;20054;-65
2023/11/08 07:43:42;;;;;;;8.85;2.90;;;8.70;99.90;;;;;;5006700;28;20046;-65
2023/11/08 07:46:09;;;;;;;3.55;2.30;;;8.70;99.90;;;;;;5010369;28;20103;-65
2023/11/08 07:48:35;;;;;;;5.10;3.08;;;8.70;99.90;;;;;;5008358;28;20396;-65
2023/11/08 07:51:00;;;;;;;4.07;2.35;;;8.70;99.90;;;;;;5002123;28;20050;-65
2023/11/08 07:53:26;;;;;;;6.93;2.63;;;8.80;99.90;;;;;;5000992;28;20073;-65
2023/11/08 07:55:54;;;;;;;4.35;2.72;;;8.80;99.90;;;;;;5004074;28;20026;-66
2023/11/08 07:58:20;;;;;;;4.68;2.47;;;9.00;99.90;;;;;;5005641;28;20486;-65
2023/11/08 08:00:46;;;;;;;4.43;2.63;;;9.10;99.90;;;;;;5005205;28;20104;-65
2023/11/08 08:03:13;;;;;;;6.97;2.40;;;9.20;99.90;;;;;;5031540;28;20476;-66
2023/11/08 08:05:40;;;;;;;4.97;1.95;;;9.20;99.90;;;;;;5005569;28;20096;-66
2023/11/08 08:08:06;;;;;;;3.78;1.75;;;9.20;99.90;;;;;;5002460;28;20038;-65
2023/11/08 08:10:33;;;;;;;2.30;2.08;;;9.20;99.90;;;;;;5002448;28;20045;-65
2023/11/08 08:13:00;;;;;;;6.15;2.10;;;9.20;99.90;;;;;;5007743;28;20049;-65
2023/11/08 08:15:27;;;;;;;2.17;1.52;;;9.20;99.90;;;;;;5007740;28;20053;-65
2023/11/08 08:17:53;;;;;;;2.53;1.75;;;9.10;99.90;;;;;;5011295;28;20038;-65
2023/11/08 08:20:19;;;;;;;2.03;1.55;;;9.20;99.90;;;;;;5036948;28;20041;-65
2023/11/08 08:22:45;;;;;;;2.45;1.92;;;9.10;99.90;;;;;;5003020;28;20093;-65
2023/11/08 08:25:11;;;;;;;3.05;1.92;;;9.20;99.90;;;;;;5007633;28;20497;-65
2023/11/08 08:27:39;;;;;;;2.38;1.63;;;9.60;99.90;;;;;;5020605;28;20125;-66
2023/11/08 08:30:14;;;;;;;4.50;2.67;;;10.20;99.90;;;;;;5041640;28;20045;-66
2023/11/08 08:32:44;;;;;;;3.58;1.83;;;10.50;99.90;;;;;;5021632;28;20042;-66
2023/11/08 08:35:13;;;;;;;7.82;1.90;;;10.90;99.90;;;;;;5005997;28;20464;-66
2023/11/08 08:37:39;;;;;;;3.22;1.83;;;11.10;99.90;;;;;;5007243;28;20048;-66
2023/11/08 08:40:10;;;;;;;3.22;1.85;;;11.00;99.90;;;;;;5037944;28;20037;-66
2023/11/08 08:42:40;;;;;;;3.47;1.75;;;10.90;99.90;;;;;;5006745;28;20395;-66
2023/11/08 08:45:08;;;;;;;2.58;1.27;;;10.80;99.90;;;;;;5036643;28;20056;-66
2023/11/08 08:47:36;;;;;;;1.95;1.20;;;10.80;99.90;;;;;;5007218;28;20143;-66
2023/11/08 08:50:02;;;;;;;2.20;1.20;;;10.80;99.90;;;;;;5001190;28;20175;-66
2023/11/08 08:52:29;;;;;;;1.70;1.58;;;10.90;99.90;;;;;;5039083;28;20177;-66
2023/11/08 08:54:54;;;;;;;3.88;1.30;;;10.90;99.90;;;;;;5011801;28;20030;-66
2023/11/08 08:57:20;;;;;;;1.58;1.27;;;10.80;99.90;;;;;;5038109;28;20506;-66
2023/11/08 08:59:46;;;;;;;3.33;1.50;;;10.60;99.90;;;;;;5000985;28;20058;-65
2023/11/08 09:02:11;;;;;;;2.95;1.40;;;10.70;99.90;;;;;;5002661;28;20038;-66
2023/11/08 09:04:37;;;;;;;3.30;1.65;;;10.80;99.90;;;;;;5007962;28;20134;-65
2023/11/08 09:07:03;;;;;;;5.00;1.52;;;11.30;99.90;;;;;;5008864;28;20108;-66
2023/11/08 09:09:30;;;;;;;2.95;1.52;;;11.80;99.90;;;;;;5000496;28;20046;-65
2023/11/08 09:11:57;;;;;;;4.03;2.05;;;12.30;99.90;;;;;;5010695;28;20570;-66
2023/11/08 09:14:23;;;;;;;3.50;1.50;;;12.80;99.90;;;;;;5008480;28;20064;-65
2023/11/08 09:16:49;;;;;;;8.52;1.45;;;13.40;99.90;;;;;;5001351;28;20052;-66
2023/11/08 09:19:15;;;;;;;5.63;1.67;;;13.80;99.90;;;;;;5013500;28;20064;-66
2023/11/08 09:21:42;;;;;;;2.25;1.42;;;13.90;99.90;;;;;;5007762;28;20030;-66
2023/11/08 09:24:08;;;;;;;2.78;1.55;;;14.40;99.90;;;;;;5005894;28;20088;-66
2023/11/08 09:26:34;;;;;;;2.85;1.38;;;14.70;99.90;;;;;;5008241;28;20081;-65
2023/11/08 09:29:00;;;;;;;4.88;1.55;;;15.20;99.90;;;;;;5037474;28;20430;-65
2023/11/08 09:31:26;;;;;;;1.27;1.00;;;15.60;99.90;;;;;;5002913;28;20042;-66
2023/11/08 09:33:56;;;;;;;1.23;0.95;;;15.60;99.90;;;;;;5043710;28;20114;-67
2023/11/08 09:36:25;;;;;;;2.28;0.75;;;15.50;99.90;;;;;;5003638;28;20060;-66
2023/11/08 09:38:51;;;;;;;2.67;0.40;;;15.60;99.90;;;;;;5001990;28;20034;-66
2023/11/08 09:41:18;;;;;;;2.28;0.70;;;15.80;99.90;;;;;;5002953;28;20042;-66
2023/11/08 09:43:48;;;;;;;1.05;0.68;;;16.00;99.90;;;;;;5006503;28;20077;-66
2023/11/08 09:46:16;;;;;;;2.22;0.93;;;16.00;99.90;;;;;;5001483;28;20038;-66
2023/11/08 09:48:44;;;;;;;0.73;0.50;;;15.90;99.90;;;;;;5032572;28;20514;-66
2023/11/08 09:51:14;;;;;;;0.65;0.30;;;15.70;99.90;;;;;;5003646;28;20588;-66
2023/11/08 09:53:43;;;;;;;1.95;0.80;;;15.50;99.90;;;;;;5010334;28;20390;-66
2023/11/08 09:56:12;;;;;;;2.05;0.70;;;15.50;99.90;;;;;;5002823;28;20056;-67
2023/11/08 09:58:48;;;;;;;1.60;0.85;;;16.00;99.90;;;;;;5008376;28;20038;-67
2023/11/08 10:01:15;;;;;;;0.80;0.70;;;16.30;99.90;;;;;;5008940;28;20404;-67
2023/11/08 10:03:43;;;;;;;0.40;0.40;;;16.30;99.90;;;;;;5004750;28;20359;-66
2023/11/08 10:06:09;;;;;;;1.90;0.30;;;16.50;99.90;;;;;;5004195;28;20038;-67
2023/11/08 10:08:35;;;;;;;0.57;0.30;;;16.70;99.90;;;;;;5007135;28;20109;-66
2023/11/08 10:11:03;;;;;;;0.75;0.40;;;17.20;99.90;;;;;;5007800;28;20030;-67
2023/11/08 10:13:42;;;;;;;1.20;0.50;;;17.60;99.90;;;;;;5006272;28;20128;-67
2023/11/08 10:16:11;;;;;;;4.15;0.57;;;18.00;99.90;;;;;;5033633;28;20101;-66
2023/11/08 10:18:37;;;;;;;2.67;0.40;;;18.00;99.90;;;;;;5010519;28;20041;-66
2023/11/08 10:21:06;;;;;;;5.40;0.65;;;16.80;99.90;;;;;;5010397;28;20464;-66
2023/11/08 10:23:32;;;;;;;0.60;0.40;;;15.70;99.90;;;;;;5008714;28;20466;-66
2023/11/08 10:26:22;;;;;;;0.30;0.20;;;14.80;99.90;;;;;;5007450;28;20168;-66
2023/11/08 10:29:01;;;;;;;0.43;0.30;;;13.90;99.90;;;;;;5003376;28;20077;-66
2023/11/08 10:31:32;;;;;;;1.10;0.52;;;13.30;99.90;;;;;;5006521;28;20046;-66
2023/11/08 10:34:00;;;;;;;0.50;0.45;;;12.70;99.90;;;;;;5035888;28;20042;-66
2023/11/08 10:36:27;;;;;;;0.85;0.40;;;12.40;99.90;;;;;;4996301;28;20071;-66
2023/11/08 10:38:54;;;;;;;1.20;0.38;;;12.00;99.90;;;;;;5006032;28;20080;-65
2023/11/08 10:41:20;;;;;;;3.80;0.30;;;11.80;99.90;;;;;;5002164;28;20038;-66
2023/11/08 10:43:46;;;;;;;0.77;0.40;;;11.60;99.90;;;;;;5002321;28;20056;-66
2023/11/08 10:46:12;;;;;;;2.88;0.40;;;11.60;99.90;;;;;;5003497;28;20042;-66
2023/11/08 10:48:38;;;;;;;0.82;0.30;;;11.50;99.90;;;;;;5007051;28;20041;-65
2023/11/08 10:51:06;;;;;;;2.85;0.60;;;11.50;99.90;;;;;;5002134;28;20502;-65
2023/11/08 10:53:32;;;;;;;0.60;0.40;;;11.50;99.90;;;;;;4999712;28;20040;-65
2023/11/08 10:56:02;;;;;;;0.30;0.20;;;11.50;99.90;;;;;;5000125;28;20129;-65
2023/11/08 10:58:35;;;;;;;0.85;0.38;;;11.60;99.90;;;;;;5006958;28;20402;-65
2023/11/08 11:01:04;;;;;;;3.33;0.30;;;11.60;99.90;;;;;;5006002;28;20486;-66
2023/11/08 11:03:36;;;;;;;2.63;0.95;;;11.70;99.90;;;;;;5007606;28;20157;-66
2023/11/08 11:06:03;;;;;;;0.93;0.50;;;11.70;99.90;;;;;;5036118;28;20053;-66
2023/11/08 11:08:33;;;;;;;2.30;0.57;;;11.70;99.90;;;;;;5004620;28;20080;-66
2023/11/08 11:10:59;;;;;;;3.35;0.30;;;11.60;99.90;;;;;;5039869;28;20053;-67
2023/11/08 11:13:34;;;;;;;1.98;0.60;;;11.50;99.90;;;;;;5006166;28;20026;-66
2023/11/08 11:16:22;;;;;;;1.67;0.25;;;11.50;99.90;;;;;;5004449;28;20104;-67
2023/11/08 11:18:53;;;;;;;4.18;0.40;;;11.30;99.90;;;;;;5000940;28;20461;-67
2023/11/08 11:21:43;;;;;;;0.47;0.38;;;11.40;99.90;;;;;;5005428;28;20034;-66
2023/11/08 11:24:42;;;;;;;1.40;0.30;;;11.40;99.90;;;;;;5008629;28;20045;-67
2023/11/08 11:27:10;;;;;;;0.20;0.20;;;11.40;99.90;;;;;;5007868;28;20041;-66
2023/11/08 11:29:37;;;;;;;1.58;0.55;;;11.40;99.90;;;;;;5004960;28;20125;-66
2023/11/08 11:32:23;;;;;;;0.20;0.10;;;11.40;99.90;;;;;;5000482;28;20394;-66
2023/11/08 11:34:49;;;;;;;0.20;0.20;;;11.40;99.90;;;;;;5002336;28;20690;-66
2023/11/08 11:37:18;;;;;;;0.47;0.40;;;11.40;99.90;;;;;;5007897;28;20033;-66
2023/11/08 11:40:08;;;;;;;0.22;0.20;;;11.40;99.90;;;;;;5035124;28;20052;-66
2023/11/08 11:42:35;;;;;;;0.47;0.10;;;11.30;99.90;;;;;;5007588;28;20053;-66
2023/11/08 11:45:06;;;;;;;2.65;0.22;;;11.30;99.90;;;;;;5007965;28;20033;-67
2023/11/08 11:47:36;;;;;;;0.60;0.40;;;11.20;99.90;;;;;;5042808;28;20061;-67
2023/11/08 11:50:07;;;;;;;1.00;0.20;;;11.20;99.90;;;;;;5005710;28;20038;-66
2023/11/08 11:52:35;;;;;;;0.68;0.40;;;11.10;99.90;;;;;;5003508;28;20466;-66
2023/11/08 11:55:03;;;;;;;0.50;0.30;;;11.00;99.90;;;;;;5010519;28;20536;-66
2023/11/08 11:57:29;;;;;;;0.47;0.13;;;11.00;99.90;;;;;;5006083;28;20050;-67
2023/11/08 11:59:58;;;;;;;0.43;0.20;;;11.00;99.90;;;;;;5035611;28;20260;-66
2023/11/08 12:02:25;;;;;;;0.10;0.10;;;10.90;99.90;;;;;;5008133;28;20081;-67
2023/11/08 12:04:51;;;;;;;0.47;0.20;;;10.80;99.90;;;;;;5040225;28;20073;-67
2023/11/08 12:07:17;;;;;;;2.40;0.70;;;10.90;99.90;;;;;;5010000;28;20461;-66
2023/11/08 12:09:45;;;;;;;3.15;0.20;;;10.90;99.90;;;;;;5005544;28;20450;-66
2023/11/08 12:12:12;;;;;;;3.65;0.40;;;10.90;99.90;;;;;;5039064;28;20128;-67
2023/11/08 12:14:49;;;;;;;1.08;0.35;;;10.80;99.90;;;;;;5006058;28;20041;-66
2023/11/08 12:17:15;;;;;;;1.10;0.40;;;10.80;99.90;;;;;;5004827;28;20031;-67
2023/11/08 12:19:41;;;;;;;2.00;0.40;;;10.80;99.90;;;;;;5003728;28;20116;-67
2023/11/08 12:22:07;;;;;;;0.45;0.30;;;10.80;99.90;;;;;;5043376;28;20470;-67
2023/11/08 12:24:34;;;;;;;1.42;0.82;;;10.90;99.90;;;;;;5040987;28;20078;-66
2023/11/08 12:27:01;;;;;;;2.63;0.98;;;10.90;99.90;;;;;;5005907;28;20049;-66
2023/11/08 12:29:27;;;;;;;1.35;0.73;;;10.90;99.90;;;;;;5034361;28;20037;-67
2023/11/08 12:31:53;;;;;;;2.58;0.30;;;11.00;99.90;;;;;;5039466;28;20046;-67
2023/11/08 12:34:21;;;;;;;2.90;0.47;;;11.10;99.90;;;;;;5055314;28;20038;-67
2023/11/08 12:36:48;;;;;;;1.98;0.30;;;11.30;99.90;;;;;;5041545;28;20045;-66
2023/11/08 12:39:18;;;;;;;2.47;0.30;;;11.30;99.90;;;;;;5002698;28;20390;-68
2023/11/08 12:41:45;;;;;;;1.88;0.13;;;11.40;99.90;;;;;;5005786;28;20054;-67
2023/11/08 12:44:13;;;;;;;1.50;1.05;;;11.20;99.90;;;;;;5008106;28;20125;-67
2023/11/08 12:46:57;;;;;;;3.00;0.63;;;11.30;99.90;;;;;;5003621;28;20049;-67
2023/11/08 12:49:27;;;;;;;2.88;0.70;;;11.30;99.90;;;;;;5000814;28;20516;-67
2023/11/08 12:51:55;;;;;;;1.23;0.32;;;11.30;99.90;;;;;;5009366;28;20058;-66
2023/11/08 12:54:22;;;;;;;1.83;0.50;;;11.40;99.90;;;;;;5008992;28;20038;-66
2023/11/08 12:56:48;;;;;;;0.68;0.30;;;11.40;99.90;;;;;;5043667;28;20096;-67
2023/11/08 12:59:16;;;;;;;0.47;0.20;;;11.30;99.90;;;;;;5009602;28;20579;-66
2023/11/08 13:01:43;;;;;;;1.70;0.40;;;11.30;99.90;;;;;;5008909;28;20531;-67